Time;durP1;ratioP1;P1;durP2;ratioP2;P2;SDS_P1;SDS_P2;PMS_P1;PMS_P2;Temp;Humidity;BMP_temperature;BMP_pressure;BME280_temperature;BME280_humidity;BME280_pressure;Samples;Min_cycle;Max_cycle;Signal;HPM_P1;HPM_P2
2023/09/26 00:01:55;;;;;;;;;8.50;6.25;;;;;21.18;45.75;101545.97;5021360;28;47010;-62
2023/09/26 00:04:21;;;;;;;;;6.00;4.00;;;;;21.18;45.88;101545.97;5039562;28;52481;-61
2023/09/26 00:06:47;;;;;;;;;5.25;5.25;;;;;21.15;45.58;101540.75;5039742;28;45417;-62
2023/09/26 00:09:12;;;;;;;;;7.00;6.00;;;;;21.15;45.77;101548.78;5039783;28;45225;-62
2023/09/26 00:11:38;;;;;;;;;8.00;6.00;;;;;21.13;45.50;101539.97;5039448;28;47131;-62
2023/09/26 00:14:04;;;;;;;;;8.75;6.00;;;;;21.11;45.50;101540.03;5039769;28;45248;-61
2023/09/26 00:16:30;;;;;;;;;8.00;6.75;;;;;21.09;45.91;101536.56;5039658;28;45332;-62
2023/09/26 00:18:55;;;;;;;;;9.50;7.75;;;;;21.06;45.31;101528.69;5021645;28;46169;-62
2023/09/26 00:21:21;;;;;;;;;6.00;6.00;;;;;21.07;45.70;101543.78;5020476;28;56446;-62
2023/09/26 00:23:46;;;;;;;;;8.00;6.75;;;;;21.01;45.31;101530.69;5043321;28;45416;-62
2023/09/26 00:26:11;;;;;;;;;5.25;4.25;;;;;21.03;45.30;101539.53;5025170;28;45368;-61
2023/09/26 00:28:37;;;;;;;;;5.25;5.25;;;;;21.02;45.35;101536.91;5043153;28;45388;-62
2023/09/26 00:31:04;;;;;;;;;8.00;7.00;;;;;20.96;45.27;101530.03;5042721;28;45444;-62
2023/09/26 00:33:31;;;;;;;;;5.75;5.50;;;;;20.98;45.73;101533.53;5043072;28;45445;-62
2023/09/26 00:35:57;;;;;;;;;6.00;5.25;;;;;20.97;45.81;101526.44;5042980;28;45266;-62
2023/09/26 00:38:23;;;;;;;;;5.75;5.00;;;;;20.96;46.28;101530.03;5042818;28;45513;-62
2023/09/26 00:40:48;;;;;;;;;9.00;7.00;;;;;20.94;45.89;101537.25;5029214;28;46438;-62
2023/09/26 00:43:23;;;;;;;;;6.50;4.25;;;;;20.92;45.41;101533.81;5042834;28;49652;-62
2023/09/26 00:45:55;;;;;;;;;5.00;5.00;;;;;20.90;45.58;101531.19;5041473;28;45287;-62
2023/09/26 00:48:24;;;;;;;;;9.25;7.00;;;;;20.89;45.50;101532.13;5042675;28;45349;-62
2023/09/26 00:50:54;;;;;;;;;5.25;4.75;;;;;20.86;45.18;101526.06;5037621;28;47263;-62
2023/09/26 00:53:21;;;;;;;;;7.50;5.50;;;;;20.83;45.56;101527.06;5039139;28;45486;-62
2023/09/26 00:55:48;;;;;;;;;5.50;5.50;;;;;20.79;45.66;101522.78;5020992;28;45365;-62
2023/09/26 00:58:17;;;;;;;;;9.25;6.50;;;;;20.76;45.33;101526.47;5021357;28;45446;-62
2023/09/26 01:00:44;;;;;;;;;5.25;4.75;;;;;20.74;45.55;101519.44;5022175;28;45502;-62
2023/09/26 01:03:09;;;;;;;;;6.25;6.25;;;;;20.76;45.52;101522.94;5022504;28;45332;-62
2023/09/26 01:05:38;;;;;;;;;8.75;6.25;;;;;20.76;45.44;101517.59;5022476;28;45308;-62
2023/09/26 01:08:07;;;;;;;;;6.00;5.50;;;;;20.72;45.89;101508.84;5021139;28;45433;-62
2023/09/26 01:10:32;;;;;;;;;3.00;3.00;;;;;20.70;45.56;101513.34;5020086;28;45457;-62
2023/09/26 01:12:58;;;;;;;;;4.75;4.75;;;;;20.67;46.05;101521.50;5022469;28;45351;-62
2023/09/26 01:15:36;;;;;;;;;6.00;5.50;;;;;20.66;45.94;101524.25;5022518;28;45311;-62
2023/09/26 01:18:23;;;;;;;;;6.00;6.00;;;;;20.63;45.54;101523.44;5021103;28;45473;-62
2023/09/26 01:20:49;;;;;;;;;5.50;5.00;;;;;20.61;45.49;101519.09;5017198;28;46108;-62
2023/09/26 01:23:15;;;;;;;;;4.00;4.00;;;;;20.57;46.15;101517.50;5022135;28;45277;-62
2023/09/26 01:25:42;;;;;;;;;7.00;5.00;;;;;20.56;46.05;101526.44;5022356;28;45238;-62
2023/09/26 01:28:10;;;;;;;;;4.75;4.75;;;;;20.53;46.36;101522.13;5020634;28;45471;-62
2023/09/26 01:30:37;;;;;;;;;8.50;5.00;;;;;20.52;45.48;101514.19;5021871;28;45490;-62
2023/09/26 01:33:04;;;;;;;;;6.75;6.75;;;;;20.48;45.86;101510.78;5020410;28;45587;-62
2023/09/26 01:35:30;;;;;;;;;4.25;4.25;;;;;20.48;46.15;101515.22;5022139;28;45231;-62
2023/09/26 01:37:55;;;;;;;;;5.00;5.00;;;;;20.45;45.89;101522.44;5021810;28;45498;-62
2023/09/26 01:40:21;;;;;;;;;4.00;4.00;;;;;20.45;46.16;101510.88;5011968;28;45352;-62
2023/09/26 01:42:46;;;;;;;;;7.75;5.00;;;;;20.41;45.92;101507.47;5018544;28;45440;-62
2023/09/26 01:45:12;;;;;;;;;10.25;7.25;;;;;20.37;46.03;101503.22;5022054;28;45332;-62
2023/09/26 01:47:48;;;;;;;;;6.00;5.25;;;;;20.36;45.57;101498.81;5020269;28;45301;-61
2023/09/26 01:50:17;;;;;;;;;5.75;5.00;;;;;20.31;45.76;101487.47;5021794;28;46394;-62
2023/09/26 01:52:43;;;;;;;;;8.50;6.75;;;;;20.23;45.82;101479.81;5018956;28;45190;-61
2023/09/26 01:55:13;;;;;;;;;6.75;5.00;;;;;20.26;45.68;101486.81;5022205;28;45324;-62
2023/09/26 01:57:38;;;;;;;;;6.00;6.00;;;;;20.23;45.70;101477.13;5041627;28;45470;-61
2023/09/26 02:00:10;;;;;;;;;6.75;5.25;;;;;20.18;45.59;101470.28;5022867;28;54752;-62
2023/09/26 02:02:36;;;;;;;;;3.75;3.75;;;;;20.14;45.93;101469.53;5028437;28;45324;-61
2023/09/26 02:05:01;;;;;;;;;8.50;6.25;;;;;20.13;46.11;101473.13;5023719;28;45171;-61
2023/09/26 02:07:26;;;;;;;;;7.00;5.25;;;;;20.07;45.49;101471.59;5010520;28;45635;-62
2023/09/26 02:09:51;;;;;;;;;8.25;6.00;;;;;20.07;45.79;101476.91;5041531;28;49440;-61
2023/09/26 02:12:17;;;;;;;;;9.25;6.00;;;;;20.04;46.02;101477.06;5041338;28;45254;-61
2023/09/26 02:14:42;;;;;;;;;7.50;5.00;;;;;20.03;46.13;101486.00;5023684;28;45448;-61
2023/09/26 02:17:10;;;;;;;;;7.00;6.00;;;;;20.02;46.24;101486.06;5027345;28;57244;-62
2023/09/26 02:19:35;;;;;;;;;5.00;5.00;;;;;19.97;45.99;101481.78;5037733;28;46049;-61
2023/09/26 02:22:02;;;;;;;;;6.00;5.25;;;;;20.00;46.23;101496.81;5041368;28;45309;-62
2023/09/26 02:24:27;;;;;;;;;4.50;4.50;;;;;19.96;46.00;101489.84;5041407;28;45272;-61
2023/09/26 02:26:56;;;;;;;;;4.75;3.00;;;;;19.94;45.81;101481.91;5041113;28;45165;-61
2023/09/26 02:29:22;;;;;;;;;5.00;4.00;;;;;19.97;46.08;101492.47;5040981;28;46191;-61
2023/09/26 02:31:47;;;;;;;;;6.00;4.00;;;;;19.96;46.17;101484.50;5041105;28;45435;-61
2023/09/26 02:34:12;;;;;;;;;4.00;4.00;;;;;19.93;45.87;101484.66;5022980;28;50027;-61
2023/09/26 02:36:38;;;;;;;;;5.25;5.00;;;;;19.91;46.06;101476.72;5023108;28;53399;-61
2023/09/26 02:39:03;;;;;;;;;4.75;4.75;;;;;19.93;46.14;101489.97;5040665;28;53718;-61
2023/09/26 02:41:28;;;;;;;;;3.00;3.00;;;;;19.91;45.76;101484.72;5027452;28;45366;-62
2023/09/26 02:43:55;;;;;;;;;6.50;6.50;;;;;19.91;45.95;101492.72;5040826;28;45330;-61
2023/09/26 02:46:21;;;;;;;;;4.25;3.00;;;;;19.91;45.99;101491.84;5020698;28;45314;-61
2023/09/26 02:48:46;;;;;;;;;3.00;3.00;;;;;19.88;46.03;101484.81;5040774;28;46018;-61
2023/09/26 02:51:12;;;;;;;;;2.00;2.00;;;;;19.88;45.87;101475.97;5022907;28;45317;-62
2023/09/26 02:53:38;;;;;;;;;4.00;3.00;;;;;19.89;46.08;101481.22;5037719;28;45293;-61
2023/09/26 02:56:03;;;;;;;;;5.00;4.00;;;;;19.83;46.17;101465.50;5034265;28;45258;-61
2023/09/26 02:58:28;;;;;;;;;2.50;2.50;;;;;19.87;46.42;101468.91;5020739;28;46142;-61
2023/09/26 03:00:54;;;;;;;;;7.00;7.00;;;;;19.87;46.26;101455.56;5020157;28;48053;-61
2023/09/26 03:03:19;;;;;;;;;5.00;3.00;;;;;19.83;45.79;101454.81;5020921;28;45277;-61
2023/09/26 03:05:53;;;;;;;;;4.00;4.00;;;;;19.85;45.58;101460.09;5020508;28;45558;-62
2023/09/26 03:08:18;;;;;;;;;5.25;5.25;;;;;19.82;45.88;101453.03;5020377;28;46693;-61
2023/09/26 03:10:43;;;;;;;;;6.50;3.00;;;;;19.81;46.27;101454.84;5009654;28;45261;-62
2023/09/26 03:13:09;;;;;;;;;6.00;5.00;;;;;19.81;45.79;101446.00;5022818;28;45472;-62
2023/09/26 03:15:34;;;;;;;;;6.25;4.75;;;;;19.78;45.76;101452.31;5027179;28;45245;-62
2023/09/26 03:18:00;;;;;;;;;4.50;4.50;;;;;19.78;46.57;101452.31;5040323;28;46108;-61
2023/09/26 03:20:25;;;;;;;;;5.25;5.25;;;;;19.74;45.97;101450.72;5036910;28;45405;-61
2023/09/26 03:22:51;;;;;;;;;6.50;4.50;;;;;19.77;46.21;101455.94;5006139;28;45369;-62
2023/09/26 03:25:16;;;;;;;;;3.50;3.50;;;;;19.73;46.35;101448.97;5040298;28;49267;-61
2023/09/26 03:27:45;;;;;;;;;5.00;4.50;;;;;19.71;46.46;101434.84;5040240;28;46216;-62
2023/09/26 03:30:10;;;;;;;;;4.50;4.25;;;;;19.75;46.25;101441.78;5040460;28;45372;-62
2023/09/26 03:32:35;;;;;;;;;7.25;5.00;;;;;19.74;46.20;101431.19;5022015;28;45286;-62
2023/09/26 03:35:01;;;;;;;;;7.25;5.50;;;;;19.72;46.49;101435.69;5040317;28;45363;-61
2023/09/26 03:37:26;;;;;;;;;5.75;5.75;;;;;19.72;46.30;101439.25;5039972;28;46135;-61
2023/09/26 03:39:51;;;;;;;;;8.00;8.00;;;;;19.60;45.87;101426.44;5022171;28;48827;-61
2023/09/26 03:42:17;;;;;;;;;12.00;8.75;;;;;19.70;46.48;101441.09;5029383;28;52294;-62
2023/09/26 03:44:43;;;;;;;;;10.00;6.75;;;;;19.70;46.60;101440.22;5021814;28;50757;-62
2023/09/26 03:47:08;;;;;;;;;10.00;9.00;;;;;19.69;46.32;101439.38;5038551;28;45866;-62
2023/09/26 03:49:34;;;;;;;;;10.25;9.75;;;;;19.68;46.05;101442.97;5039978;28;45223;-62
2023/09/26 03:51:59;;;;;;;;;14.25;12.00;;;;;19.65;46.34;101449.28;5040244;28;45230;-61
2023/09/26 03:54:24;;;;;;;;;9.00;9.00;;;;;19.63;45.96;101444.94;5035306;28;45270;-62
2023/09/26 03:56:50;;;;;;;;;9.75;8.50;;;;;19.61;46.34;101446.84;5009338;28;47848;-62
2023/09/26 03:59:16;;;;;;;;;6.50;4.25;;;;;19.59;46.43;101444.19;5019798;28;45358;-62
2023/09/26 04:01:42;;;;;;;;;9.75;8.75;;;;;19.59;46.03;101440.69;5019090;28;45255;-62
2023/09/26 04:04:08;;;;;;;;;13.25;11.75;;;;;19.57;46.38;101442.53;5019704;28;45414;-62
2023/09/26 04:06:34;;;;;;;;;12.50;10.00;;;;;19.57;46.39;101439.88;5019609;28;45434;-61
2023/09/26 04:08:59;;;;;;;;;10.75;10.75;;;;;19.57;46.09;101438.09;5001702;28;45407;-62
2023/09/26 04:11:25;;;;;;;;;13.75;11.25;;;;;19.52;46.25;101432.06;5019856;28;45258;-62
2023/09/26 04:13:50;;;;;;;;;16.00;12.75;;;;;19.49;46.45;101427.72;5019642;28;45396;-61
2023/09/26 04:16:16;;;;;;;;;12.00;10.00;;;;;19.54;46.56;101432.00;5001394;28;53315;-61
2023/09/26 04:18:43;;;;;;;;;10.75;9.50;;;;;19.52;46.52;101426.75;5001434;28;45254;-61
2023/09/26 04:21:09;;;;;;;;;11.00;11.00;;;;;19.51;46.37;101419.69;5005615;28;45255;-61
2023/09/26 04:23:34;;;;;;;;;13.75;10.50;;;;;19.48;46.28;101412.69;5001683;28;45248;-61
2023/09/26 04:25:59;;;;;;;;;12.25;9.00;;;;;19.43;46.28;101409.34;5019392;28;46470;-61
2023/09/26 04:28:25;;;;;;;;;9.50;8.75;;;;;19.45;45.96;101418.13;5001684;28;45307;-62
2023/09/26 04:30:50;;;;;;;;;12.25;11.25;;;;;19.41;46.21;101410.31;5019504;28;45292;-62
2023/09/26 04:33:16;;;;;;;;;9.75;9.75;;;;;19.43;46.63;101419.09;5019467;28;45317;-63
2023/09/26 04:35:41;;;;;;;;;12.50;9.25;;;;;19.42;46.56;101417.38;5019412;28;45810;-61
2023/09/26 04:38:06;;;;;;;;;9.00;8.50;;;;;19.38;46.47;101411.28;5013347;28;45492;-61
2023/09/26 04:40:33;;;;;;;;;14.50;11.00;;;;;19.37;46.55;101404.25;5027814;28;48548;-61
2023/09/26 04:43:01;;;;;;;;;11.00;10.50;;;;;19.39;46.44;101413.03;5037396;28;45273;-61
2023/09/26 04:45:31;;;;;;;;;11.25;10.50;;;;;19.36;45.99;101412.28;5038891;28;45528;-62
2023/09/26 04:48:01;;;;;;;;;10.25;10.25;;;;;19.33;46.05;101410.63;5021107;28;46003;-61
2023/09/26 04:50:27;;;;;;;;;12.50;11.00;;;;;19.33;46.34;101407.94;5039290;28;45341;-62
2023/09/26 04:52:53;;;;;;;;;4.25;4.25;;;;;19.35;46.73;101414.09;5036464;28;45404;-62
2023/09/26 04:55:18;;;;;;;;;10.50;10.50;;;;;19.30;46.66;101397.44;5038613;28;45320;-62
2023/09/26 04:57:43;;;;;;;;;8.00;6.75;;;;;19.30;46.21;101410.75;5019271;28;45297;-61
2023/09/26 05:00:09;;;;;;;;;14.50;13.25;;;;;19.28;46.30;101405.50;5019273;28;45480;-61
2023/09/26 05:02:35;;;;;;;;;10.50;10.50;;;;;19.25;46.54;101402.06;5018681;28;45275;-62
2023/09/26 05:05:01;;;;;;;;;11.75;10.50;;;;;19.26;46.53;101390.50;5018880;28;45261;-62
2023/09/26 05:07:26;;;;;;;;;9.00;8.25;;;;;19.26;46.50;101398.50;5021761;28;45331;-61
2023/09/26 05:09:51;;;;;;;;;14.75;11.50;;;;;19.24;46.54;101389.69;5022599;28;45207;-62
2023/09/26 05:12:17;;;;;;;;;14.25;13.25;;;;;19.24;46.39;101392.34;5028461;28;47177;-61
2023/09/26 05:14:42;;;;;;;;;14.50;13.25;;;;;19.23;46.75;101390.59;5041799;28;61504;-62
2023/09/26 05:17:07;;;;;;;;;12.00;10.25;;;;;19.23;46.75;101394.16;5041986;28;45447;-61
2023/09/26 05:19:32;;;;;;;;;14.50;11.00;;;;;19.20;46.59;101394.25;5039161;28;45364;-61
2023/09/26 05:21:58;;;;;;;;;12.50;11.25;;;;;19.19;46.57;101391.66;5042022;28;45435;-61
2023/09/26 05:24:23;;;;;;;;;12.25;11.75;;;;;19.17;46.60;101392.59;5041775;28;54952;-62
2023/09/26 05:26:49;;;;;;;;;11.50;10.00;;;;;19.16;46.78;101398.84;5041946;28;45411;-62
2023/09/26 05:29:15;;;;;;;;;8.75;8.75;;;;;19.14;47.10;101384.72;5024444;28;45350;-61
2023/09/26 05:31:40;;;;;;;;;10.50;9.25;;;;;19.12;46.72;101383.06;5041395;28;53872;-61
2023/09/26 05:34:05;;;;;;;;;7.75;6.50;;;;;19.11;46.49;101387.50;5041979;28;45283;-63
2023/09/26 05:36:33;;;;;;;;;10.75;9.75;;;;;19.11;46.83;101395.50;5041923;28;45417;-62
2023/09/26 05:38:58;;;;;;;;;10.25;9.25;;;;;19.09;46.89;101392.00;5041991;28;45331;-62
2023/09/26 05:41:23;;;;;;;;;14.75;11.25;;;;;19.09;46.76;101393.81;5028314;28;45302;-62
2023/09/26 05:43:49;;;;;;;;;14.50;12.00;;;;;19.10;46.79;101393.75;5041932;28;45297;-62
2023/09/26 05:46:14;;;;;;;;;13.00;10.75;;;;;19.06;46.84;101392.16;5040180;28;45458;-62
2023/09/26 05:48:40;;;;;;;;;15.50;13.25;;;;;19.07;46.89;101393.00;5041857;28;45336;-62
2023/09/26 05:51:05;;;;;;;;;11.25;9.25;;;;;19.08;46.75;101387.63;5041695;28;45179;-61
2023/09/26 05:53:31;;;;;;;;;13.50;12.00;;;;;19.06;46.83;101386.81;5038280;28;45613;-62
2023/09/26 05:55:56;;;;;;;;;11.00;11.00;;;;;19.03;46.87;101384.28;5036357;28;45401;-63
2023/09/26 05:58:22;;;;;;;;;11.50;10.75;;;;;19.07;47.15;101391.22;5004004;28;45343;-61
2023/09/26 06:00:48;;;;;;;;;13.00;12.00;;;;;19.03;46.81;101376.31;5021448;28;45500;-61
2023/09/26 06:03:17;;;;;;;;;14.25;12.50;;;;;19.05;46.70;101384.22;5021824;28;45410;-61
2023/09/26 06:05:43;;;;;;;;;12.25;11.00;;;;;19.04;46.90;101396.66;5021411;28;45327;-61
2023/09/26 06:08:08;;;;;;;;;26.00;21.50;;;;;19.04;46.62;101391.31;5033308;28;45332;-61
2023/09/26 06:10:33;;;;;;;;;14.50;13.00;;;;;19.05;46.61;101395.72;5036624;28;45356;-61
2023/09/26 06:12:59;;;;;;;;;11.75;9.50;;;;;19.05;47.11;101398.41;5041561;28;45329;-61
2023/09/26 06:15:24;;;;;;;;;12.25;11.75;;;;;19.03;46.93;101381.63;5023155;28;45203;-60
2023/09/26 06:17:50;;;;;;;;;12.75;11.50;;;;;19.00;46.95;101379.06;5040739;28;45204;-61
2023/09/26 06:20:15;;;;;;;;;10.25;10.00;;;;;19.02;47.19;101377.22;5035033;28;45622;-61
2023/09/26 06:22:40;;;;;;;;;11.50;11.50;;;;;19.04;46.84;101385.16;5030537;28;46276;-61
2023/09/26 06:25:06;;;;;;;;;11.25;11.25;;;;;19.03;46.84;101384.28;5020483;28;45218;-61
2023/09/26 06:27:35;;;;;;;;;13.25;10.00;;;;;19.03;46.75;101386.97;5021552;28;45424;-62
2023/09/26 06:30:01;;;;;;;;;4.25;4.25;;;;;19.00;46.80;101379.06;5003666;28;45516;-61
2023/09/26 06:32:26;;;;;;;;;12.00;11.25;;;;;19.00;47.13;101395.06;5020865;28;46271;-62
2023/09/26 06:34:57;;;;;;;;;11.50;11.50;;;;;19.01;46.82;101399.47;5021264;28;45377;-62
2023/09/26 06:37:22;;;;;;;;;12.50;9.00;;;;;19.00;47.05;101400.38;5024337;28;45345;-62
2023/09/26 06:39:48;;;;;;;;;12.50;11.00;;;;;18.98;46.88;101388.91;5030954;28;45270;-62
2023/09/26 06:42:13;;;;;;;;;11.50;11.00;;;;;19.00;47.00;101397.72;5028814;28;53290;-62
2023/09/26 06:44:39;;;;;;;;;11.00;10.25;;;;;18.97;47.15;101398.69;5028825;28;50429;-61
2023/09/26 06:47:04;;;;;;;;;9.25;6.50;;;;;18.92;47.20;101379.38;5032973;28;45302;-62
2023/09/26 06:49:29;;;;;;;;;10.50;9.25;;;;;18.90;46.98;101383.88;5030071;28;54924;-62
2023/09/26 06:51:55;;;;;;;;;9.00;8.50;;;;;18.94;47.07;101406.81;5010679;28;47656;-62
2023/09/26 06:54:20;;;;;;;;;10.25;8.00;;;;;18.92;47.50;101410.47;5027872;28;45383;-62
2023/09/26 06:56:46;;;;;;;;;12.50;9.00;;;;;18.91;46.90;101398.09;5020573;28;45487;-62
2023/09/26 06:59:13;;;;;;;;;6.75;6.50;;;;;18.94;47.03;101400.63;5002678;28;54005;-62
2023/09/26 07:01:39;;;;;;;;;11.00;10.00;;;;;18.89;47.11;101381.25;5020139;28;62488;-62
2023/09/26 07:04:04;;;;;;;;;10.25;8.75;;;;;18.94;47.31;101397.94;5019269;28;45248;-62
2023/09/26 07:06:30;;;;;;;;;11.25;10.25;;;;;18.95;47.17;101395.22;5020874;28;45298;-62
2023/09/26 07:08:57;;;;;;;;;10.00;8.00;;;;;18.94;47.01;101403.28;5020362;28;47351;-62
2023/09/26 07:11:23;;;;;;;;;8.75;8.00;;;;;18.96;46.93;101399.63;5020592;28;47281;-62
2023/09/26 07:13:48;;;;;;;;;8.00;7.25;;;;;18.97;47.36;101403.19;5020402;28;45345;-62
2023/09/26 07:16:14;;;;;;;;;5.75;5.75;;;;;18.98;47.32;101404.88;5002886;28;45484;-62
2023/09/26 07:18:39;;;;;;;;;8.25;8.00;;;;;18.97;47.12;101395.19;5020490;28;45423;-62
2023/09/26 07:21:07;;;;;;;;;8.00;6.00;;;;;19.00;46.89;101398.59;5020504;28;46079;-62
2023/09/26 07:23:36;;;;;;;;;9.25;9.25;;;;;19.03;47.39;101402.94;5002492;28;45238;-62
2023/09/26 07:26:13;;;;;;;;;9.00;7.50;;;;;19.04;47.46;101399.31;5002524;28;45200;-62
2023/09/26 07:28:45;;;;;;;;;10.25;8.00;;;;;19.08;47.44;101403.63;5027785;28;45257;-62
2023/09/26 07:31:12;;;;;;;;;10.00;6.00;;;;;19.10;47.42;101400.88;5039897;28;45172;-62
2023/09/26 07:33:38;;;;;;;;;7.00;6.25;;;;;19.15;47.38;101402.44;5022339;28;45448;-62
2023/09/26 07:36:04;;;;;;;;;6.50;6.00;;;;;19.16;47.72;101414.81;5039984;28;45340;-61
2023/09/26 07:38:29;;;;;;;;;5.00;5.00;;;;;19.17;47.46;101408.56;5031505;28;45550;-61
2023/09/26 07:40:55;;;;;;;;;6.50;6.50;;;;;19.22;47.29;101416.41;5031189;28;45306;-62
2023/09/26 07:43:29;;;;;;;;;8.75;7.50;;;;;19.24;47.11;101422.50;5040048;28;45341;-61
2023/09/26 07:46:00;;;;;;;;;7.25;6.75;;;;;19.29;47.34;101414.34;5036525;28;45462;-62
2023/09/26 07:48:25;;;;;;;;;6.50;6.50;;;;;19.36;47.63;101426.50;5002090;28;45349;-62
2023/09/26 07:50:51;;;;;;;;;5.50;5.00;;;;;19.40;47.64;101414.78;5019992;28;45323;-62
2023/09/26 07:53:16;;;;;;;;;6.50;6.50;;;;;19.44;47.62;101420.84;5023923;28;45189;-62
2023/09/26 07:55:41;;;;;;;;;6.75;6.00;;;;;19.49;47.70;101430.38;5039959;28;45493;-62
2023/09/26 07:58:16;;;;;;;;;9.75;7.00;;;;;19.56;47.64;101432.78;5009060;28;45630;-62
2023/09/26 08:00:42;;;;;;;;;5.50;5.50;;;;;19.61;47.33;101434.34;5020822;28;45195;-62
2023/09/26 08:03:08;;;;;;;;;4.25;4.00;;;;;19.62;47.62;101425.44;5002084;28;45438;-61
2023/09/26 08:05:33;;;;;;;;;8.00;6.25;;;;;19.73;47.57;101429.44;5001995;28;45408;-62
2023/09/26 08:08:03;;;;;;;;;6.75;6.75;;;;;19.76;47.47;101427.53;5019815;28;46191;-62
2023/09/26 08:10:29;;;;;;;;;8.50;7.00;;;;;19.81;47.46;101425.53;5019583;28;47127;-62
2023/09/26 08:12:54;;;;;;;;;6.00;6.00;;;;;19.87;47.77;101435.09;5019766;28;45181;-62
2023/09/26 08:15:20;;;;;;;;;4.00;4.00;;;;;19.90;47.19;101431.41;5001593;28;45404;-62
2023/09/26 08:17:54;;;;;;;;;5.25;5.25;;;;;19.95;47.22;101443.63;5020066;28;45206;-62
2023/09/26 08:20:20;;;;;;;;;6.50;6.50;;;;;20.01;47.11;101438.97;5001647;28;45465;-62
2023/09/26 08:22:45;;;;;;;;;6.00;6.00;;;;;20.04;47.75;101433.53;5001840;28;45460;-62
2023/09/26 08:25:10;;;;;;;;;6.00;5.50;;;;;20.07;47.51;101431.56;5019651;28;45243;-62
2023/09/26 08:27:36;;;;;;;;;5.00;5.00;;;;;20.12;47.79;101434.03;5019687;28;45386;-62
2023/09/26 08:30:02;;;;;;;;;10.25;6.75;;;;;20.19;47.58;101435.53;5019489;28;45227;-62
2023/09/26 08:32:27;;;;;;;;;5.75;5.75;;;;;20.20;47.67;101420.38;5001733;28;45403;-62
2023/09/26 08:34:56;;;;;;;;;6.00;6.00;;;;;20.30;47.10;101440.38;5019503;28;45465;-62
2023/09/26 08:37:21;;;;;;;;;6.25;5.25;;;;;20.37;47.94;101446.31;5022365;28;45468;-62
2023/09/26 08:39:47;;;;;;;;;8.00;7.00;;;;;20.43;47.40;101448.72;5025184;28;53991;-62
2023/09/26 08:42:25;;;;;;;;;8.00;8.00;;;;;20.48;47.62;101437.81;5042246;28;45293;-62
2023/09/26 08:44:51;;;;;;;;;4.00;4.00;;;;;20.56;47.75;101433.88;5042772;28;45230;-62
2023/09/26 08:47:16;;;;;;;;;6.50;6.50;;;;;20.61;47.04;101417.66;5027870;28;45281;-62
2023/09/26 08:49:44;;;;;;;;;5.50;3.75;;;;;20.68;47.57;101420.88;5022693;28;45460;-63
2023/09/26 08:52:09;;;;;;;;;5.25;5.25;;;;;20.76;47.25;101427.66;5022138;28;45329;-62
2023/09/26 08:54:35;;;;;;;;;3.00;3.00;;;;;20.81;47.65;101418.56;5037611;28;45299;-62
2023/09/26 08:57:01;;;;;;;;;6.50;5.25;;;;;20.89;47.25;101419.94;5013665;28;45615;-62
2023/09/26 08:59:31;;;;;;;;;3.75;3.00;;;;;20.96;47.37;101411.66;5004840;28;46252;-62
2023/09/26 09:01:57;;;;;;;;;6.50;6.00;;;;;21.03;47.64;101407.72;5021467;28;45359;-62
2023/09/26 09:04:23;;;;;;;;;7.00;6.00;;;;;21.08;47.41;101406.59;5022649;28;45464;-62
2023/09/26 09:07:00;;;;;;;;;4.25;4.00;;;;;21.15;47.21;101403.63;5022881;28;45501;-62
2023/09/26 09:09:25;;;;;;;;;6.50;6.50;;;;;21.20;46.87;101399.75;5022414;28;45365;-62
2023/09/26 09:11:50;;;;;;;;;8.75;7.75;;;;;21.26;47.20;101404.81;5022349;28;47230;-62
2023/09/26 09:14:30;;;;;;;;;11.00;10.25;;;;;21.34;47.09;101404.44;5004473;28;47577;-62
2023/09/26 09:16:56;;;;;;;;;4.75;4.75;;;;;21.39;47.83;101399.72;5022191;28;45266;-62
2023/09/26 09:19:21;;;;;;;;;3.00;2.50;;;;;21.45;47.11;101392.38;5022513;28;46801;-62
2023/09/26 09:21:47;;;;;;;;;8.25;7.25;;;;;21.53;47.12;101395.50;5022478;28;45299;-62
2023/09/26 09:24:12;;;;;;;;;6.25;5.25;;;;;21.57;47.50;101389.97;5022709;28;45329;-62
2023/09/26 09:26:37;;;;;;;;;7.50;7.00;;;;;21.68;47.29;101392.09;5022303;28;45310;-62
2023/09/26 09:29:19;;;;;;;;;9.00;8.00;;;;;21.77;47.34;101393.44;5022251;28;46034;-62
2023/09/26 09:31:44;;;;;;;;;6.00;6.00;;;;;21.86;47.27;101390.31;5022045;28;45235;-62
2023/09/26 09:34:10;;;;;;;;;6.50;6.00;;;;;21.91;47.21;101390.03;5004478;28;46491;-62
2023/09/26 09:36:37;;;;;;;;;7.25;6.00;;;;;22.03;47.22;101405.47;5004374;28;45212;-62
2023/09/26 09:39:03;;;;;;;;;6.25;6.00;;;;;22.11;47.02;101397.03;5028273;28;46159;-62
2023/09/26 09:41:31;;;;;;;;;6.25;6.25;;;;;22.24;47.22;101390.09;5037833;28;45355;-62
2023/09/26 09:43:57;;;;;;;;;6.00;6.00;;;;;22.32;47.33;101381.66;5042162;28;45317;-63
2023/09/26 09:46:23;;;;;;;;;5.00;5.00;;;;;22.42;47.11;101382.06;5034076;28;45396;-62
2023/09/26 09:48:56;;;;;;;;;8.00;7.00;;;;;22.50;47.59;101373.59;5022025;28;45418;-62
2023/09/26 09:51:22;;;;;;;;;6.00;5.00;;;;;22.68;47.13;101393.19;5021861;28;45270;-62
2023/09/26 09:53:55;;;;;;;;;7.25;7.25;;;;;22.81;47.20;101399.56;5029160;28;45273;-62
2023/09/26 09:56:24;;;;;;;;;4.00;4.00;;;;;22.93;47.00;101405.19;5036974;28;45552;-62
2023/09/26 09:58:51;;;;;;;;;6.75;5.25;;;;;23.04;46.86;101406.34;5021718;28;45269;-62
2023/09/26 10:01:20;;;;;;;;;6.50;6.50;;;;;23.15;47.08;101392.34;5021443;28;45337;-62
2023/09/26 10:03:48;;;;;;;;;7.00;6.25;;;;;23.24;47.02;101385.59;5021947;28;45362;-62
2023/09/26 10:06:14;;;;;;;;;5.00;5.00;;;;;23.39;46.97;101388.34;5020862;28;45516;-63
2023/09/26 10:08:41;;;;;;;;;7.75;7.00;;;;;23.51;47.09;101393.00;5021533;28;45334;-63
2023/09/26 10:11:08;;;;;;;;;4.25;4.25;;;;;23.62;46.92;101393.22;5021605;28;45184;-62
2023/09/26 10:13:33;;;;;;;;;7.00;6.00;;;;;23.68;46.91;101378.56;5021835;28;45318;-62
2023/09/26 10:16:06;;;;;;;;;5.50;5.00;;;;;23.84;46.93;101397.31;5003309;28;45259;-63
2023/09/26 10:18:35;;;;;;;;;4.75;4.75;;;;;23.94;46.78;101392.28;5021436;28;47124;-63
2023/09/26 10:21:01;;;;;;;;;6.50;5.25;;;;;24.10;46.33;101401.13;5003485;28;45711;-62
2023/09/26 10:23:27;;;;;;;;;8.50;5.75;;;;;24.23;46.47;101398.56;5021656;28;45354;-63
2023/09/26 10:25:53;;;;;;;;;6.00;5.00;;;;;24.34;46.73;101381.78;5027932;28;45399;-62
2023/09/26 10:28:20;;;;;;;;;7.50;6.00;;;;;24.48;46.69;101388.97;5023382;28;47080;-65
2023/09/26 10:30:45;;;;;;;;;4.75;4.25;;;;;24.60;46.29;101387.34;5003281;28;45255;-62
2023/09/26 10:33:12;;;;;;;;;6.25;5.75;;;;;24.69;46.07;101372.47;5035071;28;45392;-62
2023/09/26 10:35:44;;;;;;;;;6.00;6.00;;;;;24.80;46.29;101378.91;5041261;28;45340;-63
2023/09/26 10:38:12;;;;;;;;;6.00;6.00;;;;;24.90;46.38;101381.84;5040328;28;45394;-62
2023/09/26 10:40:37;;;;;;;;;4.00;4.00;;;;;24.97;45.98;101385.88;5030144;28;45445;-62
2023/09/26 10:43:02;;;;;;;;;6.75;5.00;;;;;25.09;45.81;101386.03;5023152;28;45454;-62
2023/09/26 10:45:28;;;;;;;;;6.00;5.00;;;;;25.18;46.11;101385.41;5040942;28;45482;-62
2023/09/26 10:47:53;;;;;;;;;5.75;5.75;;;;;25.28;46.20;101381.16;5036183;28;45301;-63
2023/09/26 10:50:28;;;;;;;;;5.00;5.00;;;;;25.42;45.99;101382.09;5032228;28;45340;-63
2023/09/26 10:52:53;;;;;;;;;6.00;5.50;;;;;25.58;45.66;101374.69;5020707;28;45368;-63
2023/09/26 10:55:21;;;;;;;;;5.00;4.00;;;;;25.72;45.47;101368.41;5040628;28;45271;-63
2023/09/26 10:57:50;;;;;;;;;5.75;5.75;;;;;25.91;45.80;101365.31;5023703;28;46283;-63
2023/09/26 11:00:15;;;;;;;;;6.75;5.75;;;;;26.12;45.79;101367.50;5020643;28;45287;-64
2023/09/26 11:02:43;;;;;;;;;5.50;3.75;;;;;26.37;45.25;101363.91;5002997;28;45251;-64
2023/09/26 11:05:11;;;;;;;;;4.50;3.50;;;;;26.64;45.17;101372.81;5020528;28;45287;-63
2023/09/26 11:07:38;;;;;;;;;3.25;2.00;;;;;26.91;45.55;101369.97;5020389;28;46108;-64
2023/09/26 11:10:03;;;;;;;;;6.00;5.50;;;;;27.23;45.77;101370.28;5020583;28;45309;-64
2023/09/26 11:12:30;;;;;;;;;3.00;3.00;;;;;27.57;45.54;101361.47;5002927;28;45319;-64
2023/09/26 11:14:56;;;;;;;;;5.00;3.75;;;;;27.96;45.49;101363.91;5020508;28;45311;-64
2023/09/26 11:17:24;;;;;;;;;5.00;3.75;;;;;28.33;45.29;101350.22;5020322;28;46457;-63
2023/09/26 11:19:50;;;;;;;;;3.00;3.00;;;;;28.74;45.83;101345.16;5002858;28;45343;-64